Service Notice

This observation station is currently unavailable due to a loss of power in the area.

Work to restore the service will be undertaken as soon as it is safe to do so.

The Bureau's national resources allow our meteorologists to produce accurate and timely forecasts and warnings in areas without observations, including for the locations around this station site. Search for forcast by town, city, post code or lat/lon here or find the location on the MetEye map.

Latest Coastal Weather Observations for Mallacoota

IDV60701

Issued at 8:22 pm EST Saturday 25 June 2022 (issued every 10 minutes, with the page automatically refreshed every 10 minutes)

About coastal observations | Map of coastal stations | Coastal observations for VIC | Marine services | Other Formats
Station Details ID: 084084 Name: MALLACOOTA Lat: -37.60 Lon: 149.73 Height: 22.0 m
Data from the previous 72 hours. | See also: Recent months at Mallacoota
Date/Time
EST
Wind Sea
Height
m
Swell Vis
km
Cloud Weather Temp
°C
Press
MSL
hPa
Rain since
9am
mm
Dir  Spd
kts
Gust
kts
Height
m
Period
s
Dir
25/08:00pm NW 7 8 - - - - - - - 8.8 1020.5 0.0
25/07:30pm NW 6 8 - - - - - - - 8.8 1020.5 0.0
25/07:00pm NNW 6 7 - - - - - - - 8.3 1020.3 0.0
25/06:30pm NW 6 7 - - - - - - - 8.7 1020.1 0.0
25/06:00pm NNW 5 6 - - - - - - - 8.7 1019.8 0.0
25/05:30pm NNW 5 6 - - - - - - - 10.2 1019.4 0.0
25/05:00pm N 4 5 - - - - - - - 11.3 1019.2 0.0
25/04:30pm N 4 6 - - - - - - - 12.4 1019.2 0.0
25/04:00pm N 4 5 - - - - - - - 14.2 1018.9 0.0
25/03:30pm NE 4 6 - - - - - - - 15.5 1018.8 0.0
25/03:00pm N 4 5 - - - - - - - 16.6 1018.7 0.0
25/02:30pm N 5 8 - - - - - - - 16.4 1018.5 0.0
25/02:00pm NNW 4 6 - - - - - - - 16.8 1018.5 0.0
25/01:30pm WSW 4 6 - - - - - - - 16.4 1018.7 0.0
25/01:00pm N 4 7 - - - - - - - 16.6 1019.0 0.0
25/12:30pm N 6 8 - - - - - - - 16.2 1019.1 0.0
25/12:00pm N 5 8 - - - - - - - 16.1 1019.3 0.0
25/11:30am NNW 5 8 - - - - - - - 15.3 1019.5 0.0
25/11:00am NNW 7 9 - - - - - - - 14.3 1019.6 0.0
25/10:30am NW 6 8 - - - - - - - 13.7 1019.8 0.0
25/10:00am NNW 7 10 - - - - - - - 12.1 1019.8 0.0
25/09:30am NNW 7 9 - - - - - - - 11.1 1019.5 0.0
25/09:00am NW 7 9 - - - - - - - 10.3 1019.2 0.0
25/08:30am NW 7 10 - - - - - - - 9.3 1019.0 0.0
25/08:00am NW 7 10 - - - - - - - 7.6 1018.8 0.0
25/07:30am NW 7 10 - - - - - - - 7.2 1018.5 0.0
25/07:00am NW 7 9 - - - - - - - 7.1 1018.3 0.0
25/06:30am NW 7 8 - - - - - - - 6.8 1018.1 0.0
25/06:00am NNW 7 9 - - - - - - - 6.8 1017.8 0.0
25/05:30am NW 7 10 - - - - - - - 6.9 1017.5 0.0
25/05:00am NW 8 10 - - - - - - - 6.9 1017.2 0.0
25/04:30am NW 7 8 - - - - - - - 6.8 1017.1 0.0
25/04:00am NW 7 10 - - - - - - - 7.4 1017.0 0.0
25/03:30am NW 7 9 - - - - - - - 7.2 1017.0 0.0
25/03:00am NW 7 9 - - - - - - - 7.5 1017.1 0.0
25/02:30am NW 7 9 - - - - - - - 7.3 1017.2 0.0
25/02:00am WNW 6 7 - - - - - - - 7.2 1017.3 0.0
25/01:30am WNW 5 7 - - - - - - - 7.8 1017.3 0.0
25/01:00am NW 6 7 - - - - - - - 7.6 1017.3 0.0
25/12:30am NW 5 6 - - - - - - - 8.1 1017.3 0.0
25/12:00am NW 4 6 - - - - - - - 8.0 1017.4 0.0
 
Date/Time
EST
Wind Sea
Height
m
Swell Vis
km
Cloud Weather Temp
°C
Press
MSL
hPa
Rain since
9am
mm
Dir  Spd
kts
Gust
kts
Height
m
Period
s
Dir
24/11:30pm NW 5 6 - - - - - - - 8.9 1017.4 0.0
24/11:00pm WNW 5 7 - - - - - - - 10.9 1017.5 0.0
24/10:30pm W 5 7 - - - - - - - 11.5 1017.4 0.0
24/10:00pm W 5 7 - - - - - - - 11.6 1017.3 0.0
24/09:30pm WNW 4 6 - - - - - - - 10.9 1017.3 0.0
24/09:00pm WNW 5 6 - - - - - - - 10.3 1017.1 0.0
24/08:30pm WNW 4 5 - - - - - - - 10.3 1016.8 0.0
24/08:00pm NW 4 5 - - - - - - - 10.0 1016.6 0.0
24/07:30pm WNW 4 5 - - - - - - - 11.3 1016.3 0.0
24/07:00pm WNW 2 4 - - - - - - - 11.6 1016.0 0.0
24/06:30pm W 4 6 - - - - - - - 12.5 1015.5 0.0
24/06:00pm WSW 4 6 - - - - - - - 12.9 1015.1 0.0
24/05:30pm W 3 4 - - - - - - - 12.7 1014.8 0.0
24/05:00pm SW 6 10 - - - - - - - 13.3 1014.2 0.0
24/04:30pm SW 8 14 - - - - - - - 13.9 1013.9 0.0
24/04:00pm SSW 5 8 - - - - - - - 14.3 1013.5 0.0
24/03:30pm SSW 9 14 - - - - - - - 14.9 1013.2 0.0
24/03:00pm SSW 7 11 - - - - - - - 15.7 1013.1 0.0
24/02:30pm S 5 7 - - - - - - - 15.1 1012.7 0.0
24/02:00pm S 6 9 - - - - - - - 14.9 1012.5 0.0
24/01:30pm S 7 10 - - - - - - - 15.4 1012.5 0.0
24/01:00pm SSE 3 4 - - - - - - - 17.1 1012.2 0.0
24/12:30pm NW 3 4 - - - - - - - 16.9 1012.1 0.0
24/12:00pm NNW 4 6 - - - - - - - 16.4 1012.4 0.0
24/11:30am NNW 5 8 - - - - - - - 16.3 1012.6 0.0
24/11:00am NNW 5 9 - - - - - - - 16.3 1013.0 0.0
24/10:30am NNW 6 8 - - - - - - - 14.9 1013.4 0.0
24/10:00am NNW 6 9 - - - - - - - 14.2 1013.5 0.0
24/09:30am NNW 6 9 - - - - - - - 13.5 1013.6 0.0
24/09:00am NNW 7 10 - - - - - - - 13.3 1013.5 0.0
24/08:30am NNW 6 9 - - - - - - - 13.3 1013.4 0.0
24/08:00am NNW 7 10 - - - - - - - 13.6 1013.3 0.0
24/07:30am NNW 7 12 - - - - - - - 14.0 1013.2 0.0
24/07:00am NNW 8 13 - - - - - - - 14.2 1013.2 0.0
24/06:30am NNW 7 11 - - - - - - - 13.8 1013.1 0.0
24/06:00am NNW 7 14 - - - - - - - 14.4 1012.9 0.0
24/05:30am NNW 10 18 - - - - - - - 14.7 1012.5 0.0
24/05:00am NNW 10 17 - - - - - - - 14.5 1012.7 0.0
24/04:30am NNW 8 12 - - - - - - - 14.5 1013.0 0.0
24/04:00am NW 9 14 - - - - - - - 15.4 1013.2 0.0
24/03:30am NNW 7 11 - - - - - - - 13.7 1013.4 0.0
24/03:00am NNW 7 10 - - - - - - - 12.5 1013.8 0.0
24/02:30am NNW 8 12 - - - - - - - 12.5 1014.0 0.0
24/02:00am NNW 7 11 - - - - - - - 12.2 1014.1 0.0
24/01:30am NNW 7 11 - - - - - - - 11.7 1014.3 0.0
24/01:00am NNW 7 11 - - - - - - - 11.5 1014.3 0.0
24/12:30am NNW 8 11 - - - - - - - 11.7 1014.7 0.0
24/12:00am NNW 8 11 - - - - - - - 11.6 1015.1 0.0
 
Date/Time
EST
Wind Sea
Height
m
Swell Vis
km
Cloud Weather Temp
°C
Press
MSL
hPa
Rain since
9am
mm
Dir  Spd
kts
Gust
kts
Height
m
Period
s
Dir
23/11:30pm NNW 8 11 - - - - - - - 11.5 1015.5 0.0
23/11:00pm NNW 8 12 - - - - - - - 11.6 1015.9 0.0
23/10:30pm NNW 7 10 - - - - - - - 11.4 1016.1 0.0
23/10:00pm NW 7 9 - - - - - - - 11.5 1016.0 0.0
23/09:30pm NW 6 10 - - - - - - - 12.0 1016.4 0.0
23/09:00pm NW 6 10 - - - - - - - 11.6 1016.7 0.0
23/08:30pm NW 5 8 - - - - - - - 11.6 1017.0 0.0
23/08:00pm NNW 6 8 - - - - - - - 12.1 1017.0 0.0
23/07:30pm NNW 6 9 - - - - - - - 12.2 1017.2 0.0
23/07:00pm NW 6 9 - - - - - - - 12.4 1017.2 0.0
23/06:30pm NW 5 7 - - - - - - - 12.3 1017.1 0.0
23/06:00pm NW 5 7 - - - - - - - 12.5 1017.1 0.0
23/05:30pm NNW 6 9 - - - - - - - 13.3 1017.1 0.0
23/05:00pm NNW 5 7 - - - - - - - 13.3 1017.3 0.0
23/04:30pm NNW 5 7 - - - - - - - 14.1 1017.2 0.0
23/04:00pm NNW 4 5 - - - - - - - 14.1 1017.4 0.0
23/03:30pm N 4 5 - - - - - - - 14.4 1017.5 0.0
23/03:00pm NNW 4 5 - - - - - - - 15.2 1017.8 0.0
23/02:30pm N 4 5 - - - - - - - 15.7 1018.2 0.0
23/02:00pm N 6 8 - - - - - - - 14.7 1018.2 0.0
23/01:30pm N 4 5 - - - - - - - 14.7 1018.7 0.0
23/01:00pm NNW 5 6 - - - - - - - 14.6 1019.0 0.0
23/12:30pm NNW 6 8 - - - - - - - 14.6 1019.6 0.0
23/12:00pm NNW 5 8 - - - - - - - 13.9 1020.2 0.0
23/11:30am NNW 4 7 - - - - - - - 14.0 1020.9 0.0
23/11:00am NNW 6 8 - - - - - - - 13.4 1021.3 0.0
23/10:30am NNW 7 10 - - - - - - - 12.9 1021.7 0.0
23/10:00am NW 6 9 - - - - - - - 12.2 1021.8 0.0
23/09:30am NW 7 9 - - - - - - - 11.1 1021.9 0.0
23/09:00am NW 7 9 - - - - - - - 9.9 1021.9 0.0
23/08:30am NW 7 9 - - - - - - - 8.9 1021.8 0.0
23/08:00am NW 7 9 - - - - - - - 7.6 1021.8 0.0
23/07:30am NW 9 12 - - - - - - - 7.9 1021.5 0.0
23/07:00am NW 7 9 - - - - - - - 7.1 1021.6 0.0
23/06:30am NW 8 9 - - - - - - - 7.3 1021.6 0.0
23/06:00am NW 7 9 - - - - - - - 7.4 1021.8 0.0
23/05:30am NW 7 10 - - - - - - - 7.1 1022.0 0.0
23/05:00am NW 7 9 - - - - - - - 7.3 1021.7 0.0
23/04:30am NW 7 8 - - - - - - - 7.6 1021.7 0.0
23/04:00am NW 7 8 - - - - - - - 7.8 1022.0 0.0
23/03:30am NW 7 8 - - - - - - - 8.1 1022.1 0.0
23/03:00am NW 7 8 - - - - - - - 8.2 1022.2 0.0
23/02:30am WNW 5 7 - - - - - - - 8.2 1022.4 0.0
23/02:00am WNW 5 7 - - - - - - - 8.4 1022.8 0.0
23/01:30am WNW 6 8 - - - - - - - 8.8 1022.9 0.0
23/01:00am WNW 5 6 - - - - - - - 8.6 1022.9 0.0
23/12:30am WNW 5 6 - - - - - - - 8.8 1023.1 0.0
23/12:00am NW 4 5 - - - - - - - 9.9 1023.1 0.0
 
Date/Time
EST
Wind Sea
Height
m
Swell Vis
km
Cloud Weather Temp
°C
Press
MSL
hPa
Rain since
9am
mm
Dir  Spd
kts
Gust
kts
Height
m
Period
s
Dir
22/11:30pm WNW 4 5 - - - - - - - 10.7 1023.4 0.0
22/11:00pm WNW 5 7 - - - - - - - 11.0 1023.6 0.0
22/10:30pm WNW 5 8 - - - - - - - 11.5 1023.6 0.0
22/10:00pm W 6 8 - - - - - - - 12.0 1023.5 0.0
22/09:30pm WNW 5 7 - - - - - - - 12.1 1023.6 0.0
22/09:00pm WNW 5 7 - - - - - - - 12.1 1023.7 0.0
22/08:30pm W 5 8 - - - - - - - 11.7 1023.6 0.0

Other formats

Comma delimited format used in spreadsheet applications
http://www.bom.gov.au/fwo/IDV60701/IDV60701.94935.axf

JavaScript Object Notation format (JSON) in row-major order
http://www.bom.gov.au/fwo/IDV60701/IDV60701.94935.json

Data quality

Most of these data are generated automatically and are frequently updated. Quality checks on data are not normally performed. It is possible for incorrect values to appear. Refer to information at About Latest Weather Observations and please check the disclaimer before using these data.